Time;durP1;ratioP1;P1;durP2;ratioP2;P2;SDS_P1;SDS_P2;PMS_P1;PMS_P2;Temp;Humidity;BMP_temperature;BMP_pressure;BME280_temperature;BME280_humidity;BME280_pressure;Samples;Min_cycle;Max_cycle;Signal;HPM_P1;HPM_P2
2022/11/22 00:00:59;;;;;;;89.63;58.93;;;13.90;85.60;;;;;;4590066;19;20034;-21
2022/11/22 00:02:30;;;;;;;171.20;115.28;;;13.90;85.40;;;;;;4590806;19;20429;-24
2022/11/22 00:04:01;;;;;;;133.85;93.45;;;13.90;85.20;;;;;;4591193;19;20010;-21
2022/11/22 00:05:33;;;;;;;119.30;82.88;;;13.90;85.10;;;;;;4591289;19;20010;-21
2022/11/22 00:07:04;;;;;;;114.78;76.72;;;13.80;85.20;;;;;;4591209;19;20022;-22
2022/11/22 00:08:36;;;;;;;112.93;70.38;;;13.90;85.20;;;;;;4590994;19;20011;-21
2022/11/22 00:10:08;;;;;;;90.60;56.92;;;13.90;85.10;;;;;;4590828;19;20010;-21
2022/11/22 00:11:40;;;;;;;87.80;57.70;;;13.80;85.10;;;;;;4591334;19;20010;-21
2022/11/22 00:13:12;;;;;;;84.17;56.23;;;13.90;85.10;;;;;;4591255;19;21083;-21
2022/11/22 00:14:44;;;;;;;85.43;57.53;;;13.80;85.20;;;;;;4590842;19;20429;-22
2022/11/22 00:16:15;;;;;;;80.40;55.22;;;13.90;85.20;;;;;;4590851;19;20417;-21
2022/11/22 00:17:47;;;;;;;85.00;55.10;;;13.90;85.20;;;;;;4589772;19;20017;-21
2022/11/22 00:19:18;;;;;;;89.18;60.28;;;13.90;85.20;;;;;;4591274;19;20032;-23
2022/11/22 00:20:49;;;;;;;84.85;58.85;;;13.90;85.20;;;;;;4587306;19;20010;-21
2022/11/22 00:22:20;;;;;;;88.22;62.22;;;13.90;85.20;;;;;;4589873;19;20464;-22
2022/11/22 00:23:56;;;;;;;84.83;60.07;;;13.90;85.30;;;;;;4589524;19;20095;-21
2022/11/22 00:25:28;;;;;;;80.87;53.97;;;13.90;85.30;;;;;;4590589;19;21026;-21
2022/11/22 00:26:59;;;;;;;81.30;55.95;;;13.90;85.10;;;;;;4590570;19;20020;-21
2022/11/22 00:28:32;;;;;;;84.73;59.13;;;13.90;85.20;;;;;;4590920;19;20015;-23
2022/11/22 00:30:06;;;;;;;81.97;56.93;;;13.80;85.20;;;;;;4590589;19;20024;-22
2022/11/22 00:31:38;;;;;;;90.33;65.60;;;13.90;85.20;;;;;;4590697;19;20014;-21
2022/11/22 00:33:09;;;;;;;83.47;60.15;;;13.80;85.10;;;;;;4590715;19;20822;-21
2022/11/22 00:34:42;;;;;;;90.90;66.00;;;13.80;85.20;;;;;;4590844;19;20082;-21
2022/11/22 00:36:13;;;;;;;92.63;65.07;;;13.90;85.30;;;;;;4589971;19;20429;-20
2022/11/22 00:37:44;;;;;;;87.95;64.18;;;13.80;85.30;;;;;;4589793;19;20078;-21
2022/11/22 00:39:16;;;;;;;89.43;59.90;;;13.80;85.30;;;;;;4590705;19;20123;-21
2022/11/22 00:40:48;;;;;;;89.80;61.50;;;13.90;85.20;;;;;;4589608;19;20077;-21
2022/11/22 00:42:20;;;;;;;94.50;66.80;;;13.90;85.30;;;;;;4590296;19;20031;-21
2022/11/22 00:43:52;;;;;;;94.50;67.53;;;13.90;85.40;;;;;;4590239;19;20010;-22
2022/11/22 00:45:24;;;;;;;97.30;67.63;;;13.90;85.70;;;;;;4590868;19;21108;-21
2022/11/22 00:46:57;;;;;;;87.70;58.77;;;13.90;85.30;;;;;;4590252;19;20010;-21
2022/11/22 00:48:28;;;;;;;85.00;58.15;;;13.80;85.20;;;;;;4590576;19;20425;-21
2022/11/22 00:50:00;;;;;;;;;;;13.90;85.20;;;;;;4590295;19;20007;-21
2022/11/22 00:51:31;;;;;;;89.70;59.60;;;13.80;85.10;;;;;;4589777;19;19982;-21
2022/11/22 00:53:02;;;;;;;84.20;58.92;;;13.90;85.10;;;;;;4590060;19;20025;-21
2022/11/22 00:54:33;;;;;;;87.95;57.60;;;13.80;85.10;;;;;;4589288;19;20018;-21
2022/11/22 00:56:05;;;;;;;88.90;59.23;;;13.90;85.10;;;;;;4589975;19;20030;-21
2022/11/22 00:57:37;;;;;;;93.35;57.58;;;13.80;85.50;;;;;;4588843;19;20011;-21
2022/11/22 00:59:08;;;;;;;87.93;60.10;;;13.90;85.00;;;;;;4590008;19;20018;-21
2022/11/22 01:00:41;;;;;;;97.50;63.77;;;13.80;84.90;;;;;;4589719;19;20334;-21
2022/11/22 01:02:13;;;;;;;;;;;13.80;85.00;;;;;;4590330;19;20022;-22
2022/11/22 01:03:44;;;;;;;109.50;72.40;;;13.80;85.00;;;;;;4590219;19;19923;-21
2022/11/22 01:05:16;;;;;;;103.50;65.22;;;13.90;85.10;;;;;;4590306;19;20090;-21
2022/11/22 01:06:48;;;;;;;98.13;63.33;;;13.80;85.20;;;;;;4589971;19;20011;-22
2022/11/22 01:08:19;;;;;;;99.88;64.70;;;13.80;85.10;;;;;;4589913;19;20453;-22
2022/11/22 01:09:51;;;;;;;98.07;66.53;;;13.80;85.10;;;;;;4589730;19;20025;-21
2022/11/22 01:11:22;;;;;;;92.90;60.90;;;13.80;85.00;;;;;;4589876;19;20424;-21
2022/11/22 01:12:55;;;;;;;87.53;59.05;;;13.90;85.10;;;;;;4589799;19;20476;-24
2022/11/22 01:14:27;;;;;;;92.50;59.97;;;13.80;85.10;;;;;;4588978;19;20021;-21
2022/11/22 01:16:03;;;;;;;91.30;57.63;;;13.90;84.90;;;;;;4588316;19;20445;-22
2022/11/22 01:17:36;;;;;;;88.27;58.50;;;13.90;85.00;;;;;;4587947;19;20464;-21
2022/11/22 01:19:08;;;;;;;93.13;62.27;;;13.90;84.90;;;;;;4589621;19;21000;-21
2022/11/22 01:20:40;;;;;;;88.72;58.65;;;13.90;84.90;;;;;;4588878;19;20436;-22
2022/11/22 01:22:11;;;;;;;87.85;58.90;;;13.90;84.90;;;;;;4589302;19;20070;-21
2022/11/22 01:23:42;;;;;;;90.60;61.75;;;13.90;84.90;;;;;;4589614;19;20359;-21
2022/11/22 01:25:14;;;;;;;92.63;61.47;;;13.90;84.90;;;;;;4589416;19;20010;-21
2022/11/22 01:26:48;;;;;;;88.93;59.83;;;13.90;84.90;;;;;;4588687;19;20444;-21
2022/11/22 01:28:19;;;;;;;92.25;60.45;;;13.90;85.00;;;;;;4589414;19;20547;-22
2022/11/22 01:29:51;;;;;;;93.88;61.17;;;13.90;85.10;;;;;;4589557;19;20013;-22
2022/11/22 01:31:23;;;;;;;94.33;62.67;;;13.90;84.90;;;;;;4589622;19;20040;-21
2022/11/22 01:32:56;;;;;;;96.63;63.07;;;13.90;84.90;;;;;;4589037;19;21104;-23
2022/11/22 01:34:30;;;;;;;93.20;62.40;;;13.90;84.90;;;;;;4589220;19;20029;-21
2022/11/22 01:36:02;;;;;;;94.63;60.13;;;13.90;84.90;;;;;;4589336;19;20357;-21
2022/11/22 01:37:34;;;;;;;94.57;59.10;;;13.90;84.90;;;;;;4588316;19;20019;-22
2022/11/22 01:39:05;;;;;;;89.70;57.85;;;13.90;84.80;;;;;;4588649;19;20074;-23
2022/11/22 01:40:37;;;;;;;92.03;59.13;;;13.90;84.90;;;;;;4588113;19;20353;-23
2022/11/22 01:42:11;;;;;;;88.65;58.35;;;13.90;84.90;;;;;;4589463;19;20010;-22
2022/11/22 01:43:43;;;;;;;93.40;58.33;;;13.90;84.90;;;;;;4588398;19;20042;-22
2022/11/22 01:45:29;;;;;;;89.93;58.92;;;13.90;85.00;;;;;;4588912;19;20014;-21
2022/11/22 01:47:11;;;;;;;86.07;57.47;;;13.80;84.90;;;;;;4587291;19;20015;-21
2022/11/22 01:49:09;;;;;;;86.40;54.93;;;13.90;84.90;;;;;;4588189;19;20010;-22
2022/11/22 01:50:41;;;;;;;86.73;56.97;;;13.80;84.90;;;;;;4587060;19;20007;-21
2022/11/22 01:52:15;;;;;;;85.60;56.23;;;13.90;84.90;;;;;;4586276;19;20378;-21
2022/11/22 01:53:47;;;;;;;83.07;56.53;;;13.90;84.80;;;;;;4587004;19;20014;-22
2022/11/22 01:55:18;;;;;;;89.00;58.00;;;13.80;84.80;;;;;;4586750;19;20532;-21
2022/11/22 01:56:53;;;;;;;86.03;59.47;;;13.80;85.00;;;;;;4587063;19;20015;-23
2022/11/22 01:58:25;;;;;;;85.50;54.97;;;13.80;85.20;;;;;;4586929;19;20437;-21
2022/11/22 02:00:01;;;;;;;87.90;56.00;;;13.90;85.50;;;;;;4586748;19;20007;-22
2022/11/22 02:01:32;;;;;;;84.47;56.00;;;13.90;85.60;;;;;;4586732;19;21025;-21
2022/11/22 02:03:06;;;;;;;77.47;53.07;;;13.80;85.60;;;;;;4586963;19;20436;-21
2022/11/22 02:04:38;;;;;;;91.23;57.77;;;13.90;85.60;;;;;;4586714;19;20804;-21
2022/11/22 02:06:12;;;;;;;83.13;55.20;;;13.90;85.50;;;;;;4586655;19;20755;-22
2022/11/22 02:07:48;;;;;;;79.13;52.33;;;13.90;85.40;;;;;;4586773;19;20432;-21
2022/11/22 02:09:20;;;;;;;79.57;53.67;;;13.90;85.40;;;;;;4586660;19;20488;-21
2022/11/22 02:10:52;;;;;;;83.97;55.47;;;13.90;85.40;;;;;;4586968;19;20437;-21
2022/11/22 02:12:26;;;;;;;82.23;54.63;;;13.90;85.40;;;;;;4585953;19;20365;-21
2022/11/22 02:13:58;;;;;;;78.50;54.03;;;13.90;85.30;;;;;;4586266;19;20494;-21
2022/11/22 02:15:30;;;;;;;80.83;55.00;;;13.90;85.20;;;;;;4586323;19;20011;-21
2022/11/22 02:17:02;;;;;;;81.13;52.87;;;13.80;85.10;;;;;;4586471;19;20022;-21
2022/11/22 02:18:34;;;;;;;80.93;54.45;;;13.90;85.20;;;;;;4586596;19;20535;-21
2022/11/22 02:20:08;;;;;;;81.83;54.57;;;13.90;85.30;;;;;;4586547;19;20030;-22
2022/11/22 02:21:41;;;;;;;82.83;55.90;;;13.90;85.20;;;;;;4585755;19;20483;-21
2022/11/22 02:23:22;;;;;;;86.82;58.20;;;13.90;85.10;;;;;;4586621;19;21067;-21
2022/11/22 02:25:01;;;;;;;85.63;55.57;;;13.80;85.20;;;;;;4586295;19;20021;-21
2022/11/22 02:26:33;;;;;;;83.67;55.60;;;13.90;85.20;;;;;;4586301;19;20018;-21
2022/11/22 02:28:09;;;;;;;83.03;56.17;;;13.90;85.20;;;;;;4586442;19;20359;-21
2022/11/22 02:29:40;;;;;;;85.73;56.43;;;13.90;85.20;;;;;;4586343;19;20480;-21
2022/11/22 02:31:31;;;;;;;89.53;57.27;;;13.80;85.30;;;;;;4586844;19;20453;-21
2022/11/22 02:33:03;;;;;;;84.10;54.67;;;13.90;85.30;;;;;;4586202;19;20018;-21
2022/11/22 02:34:46;;;;;;;82.47;56.77;;;13.90;85.40;;;;;;4586323;19;20110;-22
2022/11/22 02:36:18;;;;;;;88.90;57.97;;;13.80;85.40;;;;;;4585620;19;20520;-21
2022/11/22 02:37:50;;;;;;;81.03;53.58;;;13.80;85.90;;;;;;4585145;19;20011;-22
2022/11/22 02:39:24;;;;;;;80.87;54.03;;;13.90;85.40;;;;;;4586024;19;20032;-22
2022/11/22 02:41:04;;;;;;;78.40;52.60;;;13.90;85.30;;;;;;4585006;19;20449;-21
2022/11/22 02:45:53;;;;;;;86.57;56.20;;;13.80;85.30;;;;;;4589981;19;20428;-22
2022/11/22 02:47:25;;;;;;;84.77;54.47;;;13.90;85.40;;;;;;4590649;19;20544;-21
2022/11/22 02:48:57;;;;;;;83.00;54.38;;;13.80;85.40;;;;;;4590813;19;20014;-21
2022/11/22 02:50:29;;;;;;;89.37;55.67;;;13.80;85.40;;;;;;4590526;19;20354;-23
2022/11/22 02:52:00;;;;;;;87.85;54.53;;;13.80;85.50;;;;;;4590236;19;20488;-21
2022/11/22 02:53:32;;;;;;;86.22;56.22;;;13.80;85.70;;;;;;4590512;19;20018;-21
2022/11/22 02:55:03;;;;;;;87.97;55.53;;;13.80;85.60;;;;;;4590819;19;20014;-21
2022/11/22 02:56:36;;;;;;;89.47;56.57;;;13.80;85.70;;;;;;4590831;19;20018;-22
2022/11/22 02:58:07;;;;;;;87.85;55.85;;;13.90;85.70;;;;;;4588969;19;20494;-21
2022/11/22 02:59:39;;;;;;;;;;;13.90;85.90;;;;;;4592042;19;20361;-22
2022/11/22 03:01:11;;;;;;;85.15;53.22;;;13.90;86.00;;;;;;4592177;19;19942;-21
2022/11/22 03:02:42;;;;;;;85.87;54.60;;;13.80;85.90;;;;;;4592874;19;20010;-23
2022/11/22 03:04:23;;;;;;;88.00;54.57;;;13.90;86.10;;;;;;4592470;19;20547;-21
2022/11/22 03:05:56;;;;;;;;;;;13.90;86.10;;;;;;4593166;19;20014;-21
2022/11/22 03:07:27;;;;;;;86.93;54.93;;;13.80;86.50;;;;;;4592648;19;20383;-21
2022/11/22 03:08:59;;;;;;;90.07;57.10;;;13.90;86.10;;;;;;4592323;19;20348;-21
2022/11/22 03:10:32;;;;;;;85.03;54.47;;;13.90;86.10;;;;;;4592308;19;20014;-21
2022/11/22 03:12:03;;;;;;;85.82;53.10;;;13.80;85.90;;;;;;4590286;19;20031;-21
2022/11/22 03:13:35;;;;;;;81.37;53.20;;;13.80;86.00;;;;;;4590878;19;20007;-21
2022/11/22 03:15:07;;;;;;;;;;;13.80;86.00;;;;;;4593292;19;20449;-23
2022/11/22 03:16:43;;;;;;;77.43;51.00;;;13.90;86.00;;;;;;4592153;19;19952;-21
2022/11/22 03:18:15;;;;;;;81.87;51.50;;;13.80;86.00;;;;;;4590564;19;20465;-22
2022/11/22 03:19:46;;;;;;;82.80;51.15;;;13.80;86.00;;;;;;4592302;19;21008;-22
2022/11/22 03:21:18;;;;;;;77.82;50.47;;;13.80;86.10;;;;;;4592153;19;20010;-24
2022/11/22 03:22:50;;;;;;;76.73;49.70;;;13.80;86.00;;;;;;4592052;19;20077;-22
2022/11/22 03:24:23;;;;;;;74.50;47.13;;;13.80;86.00;;;;;;4590842;19;20026;-22
2022/11/22 03:25:56;;;;;;;81.03;50.30;;;13.80;86.00;;;;;;4591662;19;20006;-21
2022/11/22 03:27:27;;;;;;;78.80;49.47;;;13.80;86.00;;;;;;4591939;19;20006;-20
2022/11/22 03:28:59;;;;;;;88.00;55.90;;;13.80;86.00;;;;;;4590860;19;20021;-22
2022/11/22 03:30:31;;;;;;;82.18;53.63;;;13.80;86.00;;;;;;4592007;19;20024;-21
2022/11/22 03:32:03;;;;;;;85.73;53.47;;;13.80;86.00;;;;;;4591060;19;20607;-21
2022/11/22 03:33:36;;;;;;;86.23;53.90;;;13.80;86.00;;;;;;4591553;19;20030;-21
2022/11/22 03:35:08;;;;;;;83.93;53.20;;;13.80;86.00;;;;;;4591730;19;20437;-22
2022/11/22 03:36:39;;;;;;;79.55;52.83;;;13.80;86.00;;;;;;4591085;19;20078;-21
2022/11/22 03:38:11;;;;;;;82.93;52.95;;;13.80;85.90;;;;;;4590731;19;20034;-22
2022/11/22 03:39:43;;;;;;;82.03;52.77;;;13.80;85.90;;;;;;4591953;19;20010;-21
2022/11/22 03:41:15;;;;;;;;;;;13.80;85.90;;;;;;4590975;19;20062;-22
2022/11/22 03:42:46;;;;;;;79.00;49.97;;;13.80;86.00;;;;;;4591110;19;19926;-21
2022/11/22 03:44:18;;;;;;;76.93;49.30;;;13.80;85.90;;;;;;4591945;19;20672;-22
2022/11/22 03:45:51;;;;;;;74.40;49.53;;;13.80;86.00;;;;;;4591383;19;20429;-21
2022/11/22 03:47:22;;;;;;;84.70;52.75;;;13.80;85.90;;;;;;4590082;19;20547;-21
2022/11/22 03:48:53;;;;;;;72.80;48.58;;;13.80;85.90;;;;;;4591530;19;20040;-21
2022/11/22 03:50:26;;;;;;;65.27;42.80;;;13.80;85.90;;;;;;4591354;19;20108;-21
2022/11/22 03:51:59;;;;;;;62.70;41.23;;;13.80;86.00;;;;;;4591614;19;20022;-22
2022/11/22 03:53:31;;;;;;;65.07;44.05;;;13.80;86.10;;;;;;4591631;19;20471;-21
2022/11/22 03:55:02;;;;;;;68.15;46.17;;;13.80;86.30;;;;;;4591764;19;20460;-21
2022/11/22 03:56:33;;;;;;;68.30;45.05;;;13.80;86.60;;;;;;4590150;19;20014;-21
2022/11/22 03:58:04;;;;;;;60.20;38.55;;;13.80;86.60;;;;;;4589219;19;20021;-21
2022/11/22 03:59:36;;;;;;;57.50;38.63;;;13.80;86.60;;;;;;4590958;19;20038;-23
2022/11/22 04:01:09;;;;;;;63.23;41.03;;;13.80;86.50;;;;;;4591718;19;20971;-21
2022/11/22 04:02:41;;;;;;;59.60;38.33;;;13.80;86.50;;;;;;4589885;19;20484;-21
2022/11/22 04:04:12;;;;;;;60.83;39.33;;;13.80;86.50;;;;;;4590586;19;20006;-22
2022/11/22 04:05:44;;;;;;;64.80;41.20;;;13.90;86.60;;;;;;4591356;19;20017;-23
2022/11/22 04:07:16;;;;;;;64.20;41.23;;;13.80;86.50;;;;;;4591369;19;20010;-21
2022/11/22 04:08:49;;;;;;;64.83;41.70;;;13.80;86.50;;;;;;4589738;19;20014;-23
2022/11/22 04:10:21;;;;;;;;;;;13.80;86.40;;;;;;4589797;19;20011;-21
2022/11/22 04:11:52;;;;;;;63.50;41.42;;;13.80;86.50;;;;;;4590167;19;19990;-21
2022/11/22 04:15:05;;;;;;;60.03;40.17;;;13.80;86.20;;;;;;4591382;19;20583;-22
2022/11/22 04:15:16;;;;;;;58.72;38.30;;;13.80;86.20;;;;;;4591025;19;20021;-21
2022/11/22 04:16:46;;;;;;;62.42;42.15;;;13.80;86.20;;;;;;4591031;19;20027;-21
2022/11/22 04:18:18;;;;;;;60.40;39.53;;;13.80;86.20;;;;;;4589501;19;20018;-22
2022/11/22 04:21:41;;;;;;;63.03;40.73;;;13.80;86.20;;;;;;4590995;19;20014;-21
2022/11/22 04:23:18;;;;;;;63.13;40.57;;;13.80;86.20;;;;;;4591045;19;20013;-22
2022/11/22 04:26:39;;;;;;;59.93;39.67;;;13.80;86.20;;;;;;4589825;19;20425;-23
2022/11/22 04:28:12;;;;;;;59.17;38.92;;;13.80;86.20;;;;;;4590702;19;20031;-22
2022/11/22 04:29:44;;;;;;;55.83;35.87;;;13.80;86.20;;;;;;4590686;19;20363;-21
2022/11/22 04:33:05;;;;;;;56.27;37.40;;;13.80;86.30;;;;;;4590573;19;20475;-21
2022/11/22 04:34:37;;;;;;;53.93;34.17;;;13.80;86.20;;;;;;4590467;19;20424;-21
2022/11/22 04:36:08;;;;;;;51.88;32.55;;;13.80;86.20;;;;;;4590174;19;20010;-21
2022/11/22 04:37:41;;;;;;;54.53;32.97;;;13.80;86.00;;;;;;4589818;19;20039;-23
2022/11/22 04:39:12;;;;;;;49.07;32.13;;;13.80;86.00;;;;;;4590614;19;20025;-21
2022/11/22 04:40:44;;;;;;;;;;;13.80;86.00;;;;;;4589798;19;20025;-25
2022/11/22 04:45:55;;;;;;;52.47;35.90;;;14.00;86.00;;;;;;4590418;19;20425;-22
2022/11/22 04:49:30;;;;;;;49.60;34.00;;;14.10;85.70;;;;;;4588158;19;20139;-27
2022/11/22 04:52:53;;;;;;;45.97;32.77;;;14.30;85.40;;;;;;4587656;19;20102;-23
2022/11/22 04:54:25;;;;;;;51.40;34.80;;;14.30;85.20;;;;;;4587989;19;20431;-21
2022/11/22 04:55:57;;;;;;;56.00;38.53;;;14.30;85.00;;;;;;4588185;19;20050;-22
2022/11/22 04:57:29;;;;;;;55.13;36.10;;;14.30;85.00;;;;;;4587375;19;20003;-21
2022/11/22 04:59:02;;;;;;;58.23;43.20;;;14.30;85.00;;;;;;4587763;19;20014;-21
2022/11/22 05:00:32;;;;;;;55.67;39.50;;;14.30;84.90;;;;;;4586814;19;20463;-22
2022/11/22 05:02:03;;;;;;;51.95;34.38;;;14.30;84.80;;;;;;4587682;19;20023;-21
2022/11/22 05:03:35;;;;;;;49.13;31.23;;;14.30;84.80;;;;;;4588175;19;20019;-23
2022/11/22 05:05:07;;;;;;;;;;;14.30;84.70;;;;;;4588898;19;20010;-21
2022/11/22 05:06:39;;;;;;;49.50;32.88;;;14.40;84.70;;;;;;4587815;19;19918;-22
2022/11/22 05:08:10;;;;;;;49.47;33.10;;;14.30;84.70;;;;;;4586964;19;20018;-22
2022/11/22 05:09:43;;;;;;;49.10;31.57;;;14.30;84.80;;;;;;4587663;19;20031;-22
2022/11/22 05:11:15;;;;;;;47.87;30.97;;;14.30;84.70;;;;;;4587504;19;20022;-22
2022/11/22 05:12:46;;;;;;;52.60;33.10;;;14.30;84.80;;;;;;4587509;19;20455;-20
2022/11/22 05:14:19;;;;;;;48.50;32.43;;;14.30;85.10;;;;;;4587737;19;20446;-29
2022/11/22 05:15:50;;;;;;;52.05;34.15;;;14.30;85.20;;;;;;4587725;19;20030;-21
2022/11/22 05:17:21;;;;;;;47.33;31.55;;;14.30;85.20;;;;;;4587159;19;20018;-22
2022/11/22 05:19:00;;;;;;;49.13;32.77;;;14.30;85.00;;;;;;4587580;19;20401;-21
2022/11/22 05:20:31;;;;;;;51.17;35.13;;;14.40;85.10;;;;;;4587398;19;20018;-22
2022/11/22 05:22:03;;;;;;;52.50;34.60;;;14.30;85.20;;;;;;4587247;19;20006;-21
2022/11/22 05:25:24;;;;;;;50.63;32.43;;;14.20;85.30;;;;;;4586273;19;20010;-22
2022/11/22 05:26:56;;;;;;;;;;;14.20;85.50;;;;;;4588678;19;20043;-21
2022/11/22 05:28:28;;;;;;;47.03;30.17;;;14.10;85.40;;;;;;4589601;19;20328;-21
2022/11/22 05:29:59;;;;;;;48.77;32.00;;;14.10;85.50;;;;;;4588738;19;21489;-21
2022/11/22 05:31:31;;;;;;;51.00;33.05;;;14.10;85.50;;;;;;4589296;19;20352;-21
2022/11/22 05:33:02;;;;;;;53.63;34.20;;;14.10;85.60;;;;;;4588081;19;20420;-21
2022/11/22 05:34:33;;;;;;;52.65;33.70;;;14.10;85.60;;;;;;4590043;19;20476;-21
2022/11/22 05:36:05;;;;;;;54.28;32.83;;;14.10;86.10;;;;;;4589646;19;20074;-21
2022/11/22 05:37:36;;;;;;;56.33;36.67;;;14.10;85.60;;;;;;4588219;19;20380;-21
2022/11/22 05:39:07;;;;;;;59.60;38.13;;;14.10;85.80;;;;;;4589685;19;20011;-21
2022/11/22 05:40:38;;;;;;;54.38;35.72;;;14.10;85.80;;;;;;4587863;19;20057;-21
2022/11/22 05:42:10;;;;;;;55.33;33.72;;;14.10;85.80;;;;;;4585667;19;20090;-22
2022/11/22 05:43:41;;;;;;;54.95;34.97;;;14.00;85.80;;;;;;4589112;19;20444;-21
2022/11/22 05:45:12;;;;;;;54.00;36.92;;;14.00;85.90;;;;;;4589830;19;20025;-21
2022/11/22 05:46:43;;;;;;;65.93;43.35;;;14.00;85.90;;;;;;4588884;19;20022;-22
2022/11/22 05:48:14;;;;;;;62.65;40.65;;;14.00;85.80;;;;;;4589141;19;20520;-22
2022/11/22 05:49:45;;;;;;;59.35;37.72;;;14.00;85.80;;;;;;4589803;19;20021;-23
2022/11/22 05:51:18;;;;;;;55.72;36.95;;;14.00;85.90;;;;;;4588520;19;20519;-21
2022/11/22 05:52:49;;;;;;;51.10;35.77;;;14.00;85.80;;;;;;4588504;19;20029;-21
2022/11/22 05:54:20;;;;;;;56.35;37.70;;;14.00;85.70;;;;;;4587220;19;20041;-22
2022/11/22 05:55:52;;;;;;;52.97;35.40;;;14.00;85.80;;;;;;4588593;19;20364;-21
2022/11/22 05:57:23;;;;;;;51.40;35.22;;;14.00;85.80;;;;;;4589121;19;20022;-22
2022/11/22 05:58:54;;;;;;;48.80;34.72;;;14.00;85.70;;;;;;4588759;19;20119;-21
2022/11/22 06:00:27;;;;;;;49.77;34.27;;;14.00;85.70;;;;;;4588229;19;20011;-21
2022/11/22 06:01:58;;;;;;;52.10;36.57;;;14.00;85.70;;;;;;4588214;19;20022;-22
2022/11/22 06:03:29;;;;;;;49.85;36.35;;;14.00;85.60;;;;;;4589720;19;20468;-22
2022/11/22 06:05:01;;;;;;;51.85;35.33;;;14.00;85.50;;;;;;4588305;19;20362;-21
2022/11/22 06:06:32;;;;;;;48.60;34.85;;;14.00;85.40;;;;;;4587383;19;20015;-22
2022/11/22 06:08:03;;;;;;;51.42;34.28;;;14.00;85.40;;;;;;4588485;19;20025;-21
2022/11/22 06:09:35;;;;;;;;;;;14.00;85.40;;;;;;4587889;19;20508;-22
2022/11/22 06:11:16;;;;;;;53.57;34.00;;;13.90;85.40;;;;;;4587457;19;19918;-22
2022/11/22 06:12:47;;;;;;;;;;;14.00;85.40;;;;;;4586329;19;20025;-21
2022/11/22 06:14:19;;;;;;;53.47;33.23;;;14.00;85.50;;;;;;4587517;19;19922;-25
2022/11/22 06:15:50;;;;;;;50.70;34.47;;;14.00;85.70;;;;;;4586465;19;20480;-21
2022/11/22 06:17:21;;;;;;;50.13;33.97;;;14.00;85.50;;;;;;4584298;19;20350;-21
2022/11/22 06:18:53;;;;;;;;;;;14.00;85.40;;;;;;4588481;19;20487;-21
2022/11/22 06:20:24;;;;;;;50.38;34.58;;;14.00;85.40;;;;;;4591466;19;19915;-21
2022/11/22 06:21:55;;;;;;;50.50;33.85;;;14.00;85.50;;;;;;4591016;19;20425;-23
2022/11/22 06:23:27;;;;;;;48.33;32.70;;;14.00;85.50;;;;;;4590826;19;20011;-22
2022/11/22 06:24:58;;;;;;;48.38;33.80;;;14.00;85.50;;;;;;4590372;19;20139;-22
2022/11/22 06:26:30;;;;;;;52.78;36.38;;;14.00;85.30;;;;;;4589511;19;20035;-22
2022/11/22 06:28:01;;;;;;;52.20;34.60;;;14.00;85.40;;;;;;4589398;19;20472;-21
2022/11/22 06:29:33;;;;;;;48.72;33.65;;;14.00;85.60;;;;;;4588989;19;20835;-22
2022/11/22 06:31:11;;;;;;;48.38;35.08;;;14.00;85.50;;;;;;4589050;19;20017;-21
2022/11/22 06:32:42;;;;;;;51.77;33.97;;;14.00;85.40;;;;;;4589184;19;20014;-22
2022/11/22 06:34:14;;;;;;;50.33;33.63;;;14.00;85.50;;;;;;4591106;19;20565;-22
2022/11/22 06:35:45;;;;;;;51.05;33.97;;;14.00;85.50;;;;;;4591256;19;20464;-22
2022/11/22 06:37:16;;;;;;;48.80;33.35;;;14.00;85.40;;;;;;4590019;19;20098;-22
2022/11/22 06:38:47;;;;;;;49.28;34.85;;;14.00;85.40;;;;;;4590328;19;20007;-24
2022/11/22 06:40:18;;;;;;;49.40;36.47;;;14.00;85.50;;;;;;4589497;19;20038;-21
2022/11/22 06:41:50;;;;;;;52.42;37.28;;;14.00;85.60;;;;;;4589810;19;20703;-20
2022/11/22 06:43:21;;;;;;;58.28;38.03;;;14.00;85.40;;;;;;4590232;19;20015;-21
2022/11/22 06:44:52;;;;;;;58.75;39.00;;;14.00;85.50;;;;;;4590114;19;20014;-21
2022/11/22 06:46:25;;;;;;;52.75;35.75;;;14.00;85.40;;;;;;4590645;19;20110;-21
2022/11/22 06:47:57;;;;;;;49.47;32.47;;;14.00;85.50;;;;;;4590553;19;20011;-21
2022/11/22 06:49:28;;;;;;;47.17;32.67;;;14.10;86.20;;;;;;4593515;19;20030;-21
2022/11/22 06:51:00;;;;;;;45.85;30.83;;;14.10;85.40;;;;;;4592851;19;20022;-22
2022/11/22 06:52:32;;;;;;;47.53;31.50;;;14.10;85.30;;;;;;4590051;19;20017;-24
2022/11/22 06:54:03;;;;;;;50.30;33.42;;;14.00;85.20;;;;;;4590462;19;20010;-22
2022/11/22 06:55:35;;;;;;;51.17;33.20;;;14.00;85.20;;;;;;4589421;19;20029;-22
2022/11/22 06:57:06;;;;;;;48.10;33.67;;;14.00;85.20;;;;;;4587295;19;20070;-21
2022/11/22 06:58:38;;;;;;;45.15;31.80;;;14.00;85.10;;;;;;4589184;19;20448;-21
2022/11/22 07:00:12;;;;;;;44.50;31.87;;;14.00;85.00;;;;;;4588893;19;20375;-25
2022/11/22 07:01:44;;;;;;;46.60;32.40;;;14.00;84.80;;;;;;4587219;19;20456;-22
2022/11/22 07:03:15;;;;;;;41.28;29.63;;;13.90;84.50;;;;;;4588495;19;20034;-21
2022/11/22 07:04:47;;;;;;;38.30;29.08;;;14.00;84.50;;;;;;4591404;19;20042;-22
2022/11/22 07:06:19;;;;;;;39.63;26.83;;;14.00;84.50;;;;;;4591325;19;20018;-22
2022/11/22 07:07:50;;;;;;;35.00;25.55;;;13.90;84.10;;;;;;4590113;19;20485;-25
2022/11/22 07:09:22;;;;;;;42.35;27.25;;;13.90;83.80;;;;;;4589909;19;20030;-21
2022/11/22 07:10:53;;;;;;;37.90;24.02;;;13.90;83.70;;;;;;4589581;19;20015;-22
2022/11/22 07:12:25;;;;;;;34.80;24.10;;;14.00;83.70;;;;;;4589445;19;20006;-22
2022/11/22 07:13:57;;;;;;;32.67;22.83;;;14.00;83.80;;;;;;4588728;19;20078;-22
2022/11/22 07:15:29;;;;;;;33.83;23.93;;;14.00;83.60;;;;;;4588708;19;20011;-22
2022/11/22 07:17:00;;;;;;;35.05;23.27;;;14.00;83.30;;;;;;4590504;19;20013;-23
2022/11/22 07:18:32;;;;;;;37.28;24.50;;;14.00;83.00;;;;;;4588261;19;20014;-22
2022/11/22 07:20:05;;;;;;;34.30;24.53;;;14.00;82.90;;;;;;4589664;19;20015;-23
2022/11/22 07:21:38;;;;;;;;;;;14.00;83.10;;;;;;4589842;19;20086;-22
2022/11/22 07:23:11;;;;;;;44.43;32.30;;;14.00;83.10;;;;;;4589161;19;19992;-22
2022/11/22 07:24:42;;;;;;;48.30;33.47;;;13.90;82.90;;;;;;4588579;19;20030;-21
2022/11/22 07:26:14;;;;;;;47.90;35.90;;;14.00;83.00;;;;;;4589943;19;20010;-22
2022/11/22 07:27:45;;;;;;;48.93;36.50;;;14.00;83.00;;;;;;4588445;19;20018;-22
2022/11/22 07:29:17;;;;;;;81.45;63.15;;;13.90;83.20;;;;;;4588664;19;20106;-22
2022/11/22 07:30:48;;;;;;;93.30;74.57;;;14.00;83.20;;;;;;4592037;19;20038;-21
2022/11/22 07:32:19;;;;;;;92.82;69.93;;;14.00;83.20;;;;;;4591259;19;20017;-22
2022/11/22 07:33:51;;;;;;;81.28;59.50;;;13.90;83.20;;;;;;4591644;19;20043;-22
2022/11/22 07:35:21;;;;;;;66.40;48.92;;;14.00;83.20;;;;;;4589849;19;20018;-22
2022/11/22 07:36:53;;;;;;;65.68;49.47;;;14.00;83.20;;;;;;4588975;19;20014;-23
2022/11/22 07:38:24;;;;;;;65.25;48.88;;;14.00;83.30;;;;;;4589264;19;20074;-21
2022/11/22 07:39:55;;;;;;;65.57;48.55;;;14.00;83.20;;;;;;4589137;19;20010;-22
2022/11/22 07:41:26;;;;;;;47.95;34.22;;;13.90;83.10;;;;;;4589753;19;20359;-21
2022/11/22 07:42:57;;;;;;;49.65;36.20;;;14.00;83.30;;;;;;4590301;19;20015;-21
2022/11/22 07:44:28;;;;;;;51.13;35.75;;;13.90;83.40;;;;;;4590268;19;20022;-22
2022/11/22 07:46:04;;;;;;;;;;;13.90;83.40;;;;;;4594231;19;20487;-21
2022/11/22 07:47:35;;;;;;;41.67;30.37;;;13.90;84.00;;;;;;4588861;19;19918;-21
2022/11/22 07:49:07;;;;;;;37.83;27.75;;;13.90;83.70;;;;;;4590692;19;20024;-22
2022/11/22 07:50:39;;;;;;;40.10;27.70;;;13.90;83.70;;;;;;4589864;19;20017;-22
2022/11/22 07:52:10;;;;;;;37.72;26.98;;;13.90;83.80;;;;;;4589263;19;20011;-21
2022/11/22 07:53:41;;;;;;;39.88;28.05;;;14.00;84.00;;;;;;4590279;19;20028;-22
2022/11/22 07:55:12;;;;;;;37.33;27.95;;;13.90;83.70;;;;;;4590757;19;20021;-21
2022/11/22 07:56:43;;;;;;;34.72;25.85;;;14.00;83.90;;;;;;4591449;19;20014;-21
2022/11/22 07:58:14;;;;;;;38.05;26.95;;;14.00;83.90;;;;;;4590201;19;20073;-25
2022/11/22 07:59:46;;;;;;;;;;;13.90;84.30;;;;;;4592069;19;20492;-23
2022/11/22 08:01:17;;;;;;;52.53;34.67;;;13.90;83.70;;;;;;4591034;19;19923;-22
2022/11/22 08:02:48;;;;;;;52.22;35.55;;;14.00;83.50;;;;;;4589981;19;20018;-22
2022/11/22 08:04:19;;;;;;;45.08;32.63;;;13.90;83.60;;;;;;4590579;19;20038;-21
2022/11/22 08:05:57;;;;;;;41.80;29.40;;;13.90;83.70;;;;;;4589897;19;20014;-22
2022/11/22 08:07:28;;;;;;;41.60;29.20;;;14.00;84.30;;;;;;4590058;19;20021;-21
2022/11/22 08:08:59;;;;;;;39.22;28.05;;;14.00;83.80;;;;;;4590705;19;20018;-22